createdAt,value
2023-05-05T00:01:25.422Z,100712.47
2023-05-05T00:04:27.955Z,100715.69
2023-05-05T00:07:30.081Z,100717.28
2023-05-05T00:10:32.565Z,100720.47
2023-05-05T00:13:34.690Z,100714.78
2023-05-05T00:16:37.004Z,100723.16
2023-05-05T00:19:39.248Z,100720.72
2023-05-05T00:22:41.351Z,100716.13
2023-05-05T00:25:43.588Z,100721.22
2023-05-05T00:28:45.752Z,100722.56
2023-05-05T00:31:47.922Z,100720.13
2023-05-05T00:34:50.067Z,100723.88
2023-05-05T00:37:52.231Z,100714.94
2023-05-05T00:40:54.421Z,100707.88
2023-05-05T00:43:56.598Z,100710.03
2023-05-05T00:46:59.352Z,100711.13
2023-05-05T00:50:02.964Z,100712.50
2023-05-05T00:53:06.484Z,100708.41
2023-05-05T00:56:08.927Z,100710.56
2023-05-05T00:59:11.320Z,100703.53
2023-05-05T01:02:13.966Z,100701.34
2023-05-05T01:05:16.607Z,100704.78
2023-05-05T01:08:29.564Z,100699.91
2023-05-05T01:11:49.729Z,100704.50
2023-05-05T01:15:01.714Z,100705.59
2023-05-05T01:18:47.047Z,100701.16
2023-05-05T01:21:56.443Z,100698.69
2023-05-05T01:25:30.038Z,100697.66
2023-05-05T01:28:42.599Z,100699.78
2023-05-05T01:31:53.430Z,100690.31
2023-05-05T01:35:02.455Z,100695.13
2023-05-05T01:38:09.865Z,100691.31
2023-05-05T01:41:19.763Z,100693.97
2023-05-05T01:44:21.992Z,100698.78
2023-05-05T01:47:24.798Z,100698.22
2023-05-05T01:50:28.691Z,100691.59
2023-05-05T01:53:31.383Z,100694.84
2023-05-05T01:56:34.816Z,100696.19
2023-05-05T01:59:39.594Z,100694.53
2023-05-05T02:02:44.545Z,100703.47
2023-05-05T02:05:47.128Z,100689.16
2023-05-05T02:08:49.757Z,100699.13
2023-05-05T02:11:52.389Z,100687.19
2023-05-05T02:14:56.331Z,100683.44
2023-05-05T02:17:59.606Z,100679.66
2023-05-05T02:21:02.536Z,100675.31
2023-05-05T02:24:05.132Z,100684.19
2023-05-05T02:27:07.573Z,100679.25
2023-05-05T02:30:11.645Z,100689.25
2023-05-05T02:33:15.121Z,100684.06
2023-05-05T02:36:20.763Z,100688.59
2023-05-05T02:39:33.252Z,100682.91
2023-05-05T02:42:41.062Z,100680.16
2023-05-05T02:45:46.270Z,100678.19
2023-05-05T02:48:49.524Z,100688.38
2023-05-05T02:51:51.848Z,100686.47
2023-05-05T02:55:00.352Z,100693.50
2023-05-05T02:58:06.759Z,100702.97
2023-05-05T03:01:47.833Z,100701.06
2023-05-05T03:04:56.414Z,100691.63
2023-05-05T03:08:03.949Z,100696.19
2023-05-05T03:11:16.651Z,100698.16
2023-05-05T03:14:21.058Z,100698.16
2023-05-05T03:17:25.892Z,100688.69
2023-05-05T03:20:29.037Z,100694.06
2023-05-05T03:23:33.425Z,100697.31
2023-05-05T03:26:35.697Z,100692.75
2023-05-05T03:29:38.093Z,100695.69
2023-05-05T03:32:44.468Z,100696.50
2023-05-05T03:35:46.772Z,100701.41
2023-05-05T03:38:49.891Z,100698.25
2023-05-05T03:41:54.279Z,100690.56
2023-05-05T03:44:57.563Z,100683.44
2023-05-05T03:48:00.656Z,100689.03
2023-05-05T03:51:03.348Z,100695.38
2023-05-05T03:54:08.072Z,100687.41
2023-05-05T03:57:11.586Z,100694.25
2023-05-05T04:00:15.197Z,100697.91
2023-05-05T04:03:19.994Z,100697.72
2023-05-05T04:06:23.190Z,100703.19
2023-05-05T04:09:25.528Z,100708.59
2023-05-05T04:12:27.844Z,100708.22
2023-05-05T04:15:30.888Z,100708.41
2023-05-05T04:18:33.264Z,100716.81
2023-05-05T04:21:35.839Z,100710.53
2023-05-05T04:24:38.702Z,100705.41
2023-05-05T04:27:40.915Z,100709.97
2023-05-05T04:30:43.424Z,100699.59
2023-05-05T04:33:45.943Z,100702.13
2023-05-05T04:36:48.802Z,100704.84
2023-05-05T04:39:51.754Z,100712.63
2023-05-05T04:42:54.503Z,100723.69
2023-05-05T04:45:57.209Z,100727.91
2023-05-05T04:49:05.065Z,100724.91
2023-05-05T04:52:07.934Z,100725.44
2023-05-05T04:55:11.559Z,100730.56
2023-05-05T04:58:13.792Z,100734.88
2023-05-05T05:01:16.233Z,100740.06
2023-05-05T05:04:18.862Z,100732.75
2023-05-05T05:07:21.300Z,100731.94
2023-05-05T05:10:23.480Z,100741.97
2023-05-05T05:13:26.040Z,100747.91
2023-05-05T05:16:28.448Z,100741.94
2023-05-05T05:19:30.739Z,100748.22
2023-05-05T05:22:33.068Z,100746.13
2023-05-05T05:25:39.293Z,100735.59
2023-05-05T05:28:41.881Z,100747.03
2023-05-05T05:31:44.222Z,100743.81
2023-05-05T05:34:46.452Z,100747.69
2023-05-05T05:37:50.868Z,100755.34
2023-05-05T05:40:54.536Z,100751.03
2023-05-05T05:43:57.999Z,100752.09
2023-05-05T05:47:00.748Z,100761.91
2023-05-05T05:50:04.950Z,100767.91
2023-05-05T05:53:07.651Z,100770.16
2023-05-05T05:56:09.880Z,100766.41
2023-05-05T05:59:12.913Z,100766.19
2023-05-05T06:02:16.687Z,100755.94
2023-05-05T06:05:27.158Z,100762.22
2023-05-05T06:08:33.511Z,100754.13
2023-05-05T06:11:43.525Z,100765.03
2023-05-05T06:14:45.923Z,100746.00
2023-05-05T06:17:48.488Z,100767.75
2023-05-05T06:20:51.417Z,100760.16
2023-05-05T06:23:58.596Z,100759.09
2023-05-05T06:27:02.298Z,100771.31
2023-05-05T06:30:07.874Z,100761.31
2023-05-05T06:33:13.649Z,100752.66
2023-05-05T06:36:16.513Z,100744.53
2023-05-05T06:39:18.838Z,100744.03
2023-05-05T06:42:21.158Z,100750.53
2023-05-05T06:45:23.485Z,100736.72
2023-05-05T06:48:25.874Z,100730.25
2023-05-05T06:51:28.071Z,100739.97
2023-05-05T06:54:31.084Z,100745.13
2023-05-05T06:57:33.434Z,100750.31
2023-05-05T07:00:35.609Z,100747.34
2023-05-05T07:03:38.126Z,100741.66
2023-05-05T07:10:17.008Z,100738.16
2023-05-05T07:21:15.398Z,100739.25
2023-05-05T07:24:32.204Z,100730.56
2023-05-05T07:27:48.480Z,100734.09
2023-05-05T07:30:58.454Z,100739.25
2023-05-05T07:34:00.774Z,100734.34
2023-05-05T07:37:04.105Z,100734.91
2023-05-05T07:40:07.198Z,100738.66
2023-05-05T07:43:09.937Z,100740.28
2023-05-05T07:46:15.499Z,100748.66
2023-05-05T07:50:27.121Z,100743.53
2023-05-05T07:53:41.669Z,100730.50
2023-05-05T07:56:45.443Z,100739.72
2023-05-05T07:59:47.790Z,100732.13
2023-05-05T08:02:52.996Z,100744.09
2023-05-05T08:09:57.935Z,100747.84
2023-05-05T08:13:04.126Z,100738.59
2023-05-05T08:16:12.656Z,100734.00
2023-05-05T08:19:27.620Z,100738.28
2023-05-05T08:22:36.260Z,100734.78
2023-05-05T08:25:42.367Z,100734.22
2023-05-05T08:29:06.179Z,100728.25
2023-05-05T08:32:09.075Z,100708.97
2023-05-05T08:35:11.876Z,100727.94
2023-05-05T08:38:15.081Z,100736.28
2023-05-05T08:41:21.118Z,100733.03
2023-05-05T08:44:23.366Z,100724.56
2023-05-05T08:47:25.652Z,100718.63
2023-05-05T08:50:31.714Z,100720.78
2023-05-05T08:53:52.805Z,100728.09
2023-05-05T08:57:07.026Z,100718.59
2023-05-05T09:00:13.515Z,100689.06
2023-05-05T09:03:22.718Z,100719.56
2023-05-05T09:06:33.382Z,100677.84
2023-05-05T09:09:47.437Z,100718.19
2023-05-05T09:12:51.578Z,100715.47
2023-05-05T09:15:53.926Z,100702.75
2023-05-05T09:19:06.364Z,100696.53
2023-05-05T09:22:08.609Z,100698.38
2023-05-05T09:25:15.659Z,100698.91
2023-05-05T09:28:18.291Z,100700.00
2023-05-05T09:31:20.835Z,100678.03
2023-05-05T09:34:22.946Z,100686.16
2023-05-05T09:37:31.564Z,100684.22
2023-05-05T09:40:45.482Z,100686.09
2023-05-05T09:43:54.191Z,100683.91
2023-05-05T09:46:58.247Z,100674.94
2023-05-05T09:50:00.847Z,100674.63
2023-05-05T09:53:03.909Z,100666.38
2023-05-05T09:56:07.025Z,100673.16
2023-05-05T09:59:11.200Z,100678.50
2023-05-05T10:02:14.396Z,100675.44
2023-05-05T10:05:19.096Z,100679.81
2023-05-05T10:08:24.603Z,100673.50
2023-05-05T10:11:26.954Z,100669.09
2023-05-05T10:14:35.862Z,100668.78
2023-05-05T10:18:05.953Z,100652.69
2023-05-05T10:21:11.269Z,100650.19
2023-05-05T10:24:19.982Z,100663.69
2023-05-05T10:27:24.728Z,100658.78
2023-05-05T10:30:36.963Z,100647.41
2023-05-05T10:33:50.694Z,100635.97
2023-05-05T10:36:55.157Z,100640.94
2023-05-05T10:39:59.438Z,100630.00
2023-05-05T10:43:01.910Z,100624.28
2023-05-05T10:46:04.577Z,100630.69
2023-05-05T10:49:25.880Z,100630.03
2023-05-05T10:52:48.331Z,100628.06
2023-05-05T10:56:05.554Z,100620.63
2023-05-05T10:59:40.135Z,100621.06
2023-05-05T11:02:44.691Z,100610.44
2023-05-05T11:06:05.781Z,100608.72
2023-05-05T11:09:29.577Z,100602.44
2023-05-05T11:12:33.028Z,100596.41
2023-05-05T11:15:37.824Z,100599.34
2023-05-05T11:18:44.287Z,100597.25
2023-05-05T11:22:01.977Z,100587.09
2023-05-05T11:25:35.562Z,100590.06
2023-05-05T11:28:58.154Z,100595.09
2023-05-05T11:32:17.884Z,100579.56
2023-05-05T11:35:20.093Z,100583.13
2023-05-05T11:38:32.044Z,100577.28
2023-05-05T11:42:06.602Z,100574.44
2023-05-05T11:45:22.964Z,100568.84
2023-05-05T11:48:27.805Z,100567.50
2023-05-05T11:51:31.016Z,100570.84
2023-05-05T11:54:35.479Z,100557.53
2023-05-05T11:57:37.847Z,100562.22
2023-05-05T12:00:40.025Z,100557.69
2023-05-05T12:03:43.431Z,100563.78
2023-05-05T12:06:46.301Z,100554.13
2023-05-05T12:09:49.320Z,100550.41
2023-05-05T12:12:53.174Z,100555.13
2023-05-05T12:15:57.367Z,100540.59
2023-05-05T12:19:07.349Z,100549.06
2023-05-05T12:22:09.595Z,100540.25
2023-05-05T12:25:11.846Z,100544.28
2023-05-05T12:28:14.032Z,100539.72
2023-05-05T12:31:16.731Z,100538.72
2023-05-05T12:34:21.387Z,100533.91
2023-05-05T12:37:25.391Z,100534.41
2023-05-05T12:40:47.980Z,100524.72
2023-05-05T12:43:56.025Z,100525.72
2023-05-05T12:46:59.293Z,100505.44
2023-05-05T12:50:03.205Z,100514.00
2023-05-05T12:56:29.978Z,100510.75
2023-05-05T12:59:33.429Z,100510.16
2023-05-05T13:02:35.762Z,100492.06
2023-05-05T13:05:38.074Z,100492.66
2023-05-05T13:08:43.561Z,100487.59
2023-05-05T13:11:45.708Z,100483.66
2023-05-05T13:14:47.962Z,100481.63
2023-05-05T13:17:59.145Z,100473.44
2023-05-05T13:21:01.307Z,100471.38
2023-05-05T13:27:09.155Z,100475.44
2023-05-05T13:30:11.776Z,100456.66
2023-05-05T13:33:14.074Z,100457.94
2023-05-05T13:36:16.274Z,100453.09
2023-05-05T13:39:18.856Z,100453.69
2023-05-05T13:45:37.147Z,100440.16
2023-05-05T13:48:39.828Z,100445.03
2023-05-05T13:51:42.131Z,100442.28
2023-05-05T13:54:44.321Z,100437.72
2023-05-05T13:57:46.668Z,100429.38
2023-05-05T14:00:48.920Z,100430.84
2023-05-05T14:03:51.308Z,100433.97
2023-05-05T14:06:53.545Z,100431.22
2023-05-05T14:09:55.795Z,100441.63
2023-05-05T14:12:58.086Z,100426.81
2023-05-05T14:16:00.331Z,100422.16
2023-05-05T14:19:02.554Z,100424.59
2023-05-05T14:22:04.782Z,100427.84
2023-05-05T14:25:07.527Z,100425.19
2023-05-05T14:28:09.844Z,100423.47
2023-05-05T14:31:12.129Z,100428.16
2023-05-05T14:34:14.283Z,100416.59
2023-05-05T14:37:19.498Z,100411.44
2023-05-05T14:40:21.802Z,100422.22
2023-05-05T14:43:24.047Z,100406.28
2023-05-05T14:46:27.407Z,100411.88
2023-05-05T14:49:29.652Z,100417.19
2023-05-05T14:52:31.820Z,100414.94
2023-05-05T14:55:34.235Z,100413.97
2023-05-05T14:58:36.487Z,100401.06
2023-05-05T15:01:38.766Z,100408.66
2023-05-05T15:04:40.955Z,100408.16
2023-05-05T15:07:43.160Z,100400.09
2023-05-05T15:10:46.094Z,100403.66
2023-05-05T15:13:48.313Z,100403.31
2023-05-05T15:16:50.615Z,100401.72
2023-05-05T15:19:55.723Z,100397.66
2023-05-05T15:22:58.094Z,100403.44
2023-05-05T15:26:00.415Z,100403.13
2023-05-05T15:29:03.236Z,100403.66
2023-05-05T15:32:05.788Z,100393.13
2023-05-05T15:35:08.708Z,100395.53
2023-05-05T15:38:11.076Z,100405.66
2023-05-05T15:41:13.304Z,100396.78
2023-05-05T15:44:15.975Z,100390.84
2023-05-05T15:47:18.651Z,100397.56
2023-05-05T15:50:20.985Z,100395.16
2023-05-05T15:53:23.226Z,100390.84
2023-05-05T15:56:27.366Z,100385.97
2023-05-05T15:59:29.513Z,100386.16
2023-05-05T16:02:31.689Z,100384.56
2023-05-05T16:05:33.898Z,100386.31
2023-05-05T16:08:36.336Z,100382.59
2023-05-05T16:11:38.570Z,100374.06
2023-05-05T16:14:40.770Z,100376.03
2023-05-05T16:17:42.983Z,100376.50
2023-05-05T16:20:45.265Z,100374.88
2023-05-05T16:23:47.472Z,100378.75
2023-05-05T16:26:49.733Z,100377.78
2023-05-05T16:29:53.238Z,100376.97
2023-05-05T16:32:55.500Z,100377.28
2023-05-05T16:35:57.717Z,100371.16
2023-05-05T16:38:59.902Z,100369.19
2023-05-05T16:42:02.844Z,100377.00
2023-05-05T16:45:06.778Z,100368.09
2023-05-05T16:48:09.327Z,100371.09
2023-05-05T16:51:12.914Z,100369.47
2023-05-05T16:54:15.084Z,100368.19
2023-05-05T16:57:17.471Z,100374.75
2023-05-05T17:00:20.020Z,100369.75
2023-05-05T17:03:22.700Z,100376.31
2023-05-05T17:06:24.918Z,100372.72
2023-05-05T17:09:27.498Z,100372.03
2023-05-05T17:12:29.621Z,100372.28
2023-05-05T17:15:31.965Z,100369.13
2023-05-05T17:18:34.168Z,100374.78
2023-05-05T17:21:36.327Z,100367.31
2023-05-05T17:24:38.599Z,100364.53
2023-05-05T17:27:41.763Z,100363.50
2023-05-05T17:30:44.102Z,100368.09
2023-05-05T17:33:46.233Z,100368.03
2023-05-05T17:36:48.450Z,100369.28
2023-05-05T17:39:50.591Z,100367.41
2023-05-05T17:42:52.734Z,100382.03
2023-05-05T17:45:54.935Z,100379.84
2023-05-05T17:48:57.342Z,100377.84
2023-05-05T17:51:59.527Z,100380.44
2023-05-05T17:55:01.729Z,100377.13
2023-05-05T17:58:04.091Z,100379.94
2023-05-05T18:01:06.395Z,100382.06
2023-05-05T18:04:08.727Z,100380.06
2023-05-05T18:07:16.352Z,100378.03
2023-05-05T18:10:18.530Z,100373.69
2023-05-05T18:13:21.477Z,100385.97
2023-05-05T18:16:23.829Z,100385.81
2023-05-05T18:22:42.118Z,100384.56
2023-05-05T18:25:44.256Z,100388.97
2023-05-05T18:28:46.446Z,100390.97
2023-05-05T18:31:53.289Z,100392.47
2023-05-05T18:34:55.836Z,100397.38
2023-05-05T18:37:58.018Z,100398.78
2023-05-05T18:41:00.197Z,100405.13
2023-05-05T18:44:04.865Z,100404.41
2023-05-05T18:47:07.790Z,100409.59
2023-05-05T18:50:10.678Z,100409.69
2023-05-05T18:53:14.897Z,100403.00
2023-05-05T18:56:17.188Z,100411.22
2023-05-05T18:59:19.353Z,100405.69
2023-05-05T19:02:21.631Z,100413.91
2023-05-05T19:11:56.284Z,100408.88
2023-05-05T19:14:58.442Z,100417.59
2023-05-05T19:18:00.833Z,100426.41
2023-05-05T19:21:03.082Z,100422.91
2023-05-05T19:24:07.831Z,100418.38
2023-05-05T19:27:15.472Z,100421.09
2023-05-05T19:30:19.381Z,100418.75
2023-05-05T19:33:22.935Z,100422.31
2023-05-05T19:36:25.934Z,100423.53
2023-05-05T19:39:28.144Z,100422.47
2023-05-05T19:42:30.374Z,100415.53
2023-05-05T19:45:33.764Z,100426.44
2023-05-05T19:48:36.023Z,100429.25
2023-05-05T19:51:38.143Z,100433.38
2023-05-05T19:54:40.274Z,100425.03
2023-05-05T19:57:42.507Z,100432.13
2023-05-05T20:00:44.666Z,100420.78
2023-05-05T20:03:47.072Z,100419.13
2023-05-05T20:06:49.360Z,100415.41
2023-05-05T20:09:51.545Z,100420.78
2023-05-05T20:12:53.965Z,100418.44
2023-05-05T20:15:56.318Z,100420.38
2023-05-05T20:18:58.562Z,100422.03
2023-05-05T20:22:00.870Z,100421.19
2023-05-05T20:25:03.047Z,100412.00
2023-05-05T20:28:05.316Z,100410.94
2023-05-05T20:31:07.708Z,100417.72
2023-05-05T20:34:09.897Z,100419.38
2023-05-05T20:37:13.790Z,100418.38
2023-05-05T20:40:16.194Z,100417.31
2023-05-05T20:43:19.017Z,100417.06
2023-05-05T20:46:21.179Z,100407.34
2023-05-05T20:49:23.395Z,100412.81
2023-05-05T20:52:25.682Z,100418.50
2023-05-05T20:55:27.975Z,100416.13
2023-05-05T20:58:30.195Z,100416.91
2023-05-05T21:01:32.573Z,100411.50
2023-05-05T21:04:34.903Z,100410.72
2023-05-05T21:07:37.113Z,100413.13
2023-05-05T21:10:39.528Z,100411.53
2023-05-05T21:13:41.699Z,100396.41
2023-05-05T21:16:45.937Z,100406.41
2023-05-05T21:19:48.176Z,100408.28
2023-05-05T21:22:50.340Z,100403.16
2023-05-05T21:25:52.526Z,100404.78
2023-05-05T21:28:54.629Z,100404.78
2023-05-05T21:31:57.068Z,100395.91
2023-05-05T21:34:59.327Z,100402.13
2023-05-05T21:38:01.538Z,100402.13
2023-05-05T21:41:03.803Z,100394.31
2023-05-05T21:44:05.970Z,100387.56
2023-05-05T21:47:08.356Z,100387.06
2023-05-05T21:50:12.184Z,100377.03
2023-05-05T21:53:14.596Z,100382.72
2023-05-05T21:56:16.849Z,100368.66
2023-05-05T21:59:19.035Z,100368.94
2023-05-05T22:02:21.255Z,100364.06
2023-05-05T22:05:23.472Z,100381.66
2023-05-05T22:08:25.695Z,100366.56
2023-05-05T22:14:44.070Z,100381.72
2023-05-05T22:17:49.104Z,100382.53
2023-05-05T22:20:52.142Z,100379.56
2023-05-05T22:23:54.402Z,100373.88
2023-05-05T22:26:57.410Z,100380.66
2023-05-05T22:29:59.754Z,100363.31
2023-05-05T22:33:02.277Z,100387.13
2023-05-05T22:36:04.746Z,100377.09
2023-05-05T22:39:07.391Z,100393.06
2023-05-05T22:42:09.729Z,100398.22
2023-05-05T22:45:12.170Z,100384.13
2023-05-05T22:48:14.993Z,100393.06
2023-05-05T22:51:17.814Z,100393.91
2023-05-05T22:54:20.150Z,100400.94
2023-05-05T22:57:22.811Z,100398.22
2023-05-05T23:00:27.636Z,100398.22
2023-05-05T23:03:29.818Z,100399.31
2023-05-05T23:06:32.196Z,100404.97
2023-05-05T23:09:34.350Z,100394.44
2023-05-05T23:12:36.591Z,100399.84
2023-05-05T23:15:38.957Z,100408.22
2023-05-05T23:18:41.097Z,100407.69
2023-05-05T23:21:52.700Z,100402.56
2023-05-05T23:24:56.108Z,100405.00
2023-05-05T23:27:58.345Z,100402.03
2023-05-05T23:31:00.743Z,100387.69
2023-05-05T23:34:02.921Z,100388.22
2023-05-05T23:37:06.422Z,100391.19
2023-05-05T23:40:09.282Z,100382.53
2023-05-05T23:43:12.109Z,100387.94
2023-05-05T23:46:14.470Z,100382.53
2023-05-05T23:49:16.732Z,100383.38
2023-05-05T23:52:21.906Z,100374.16
2023-05-05T23:55:25.451Z,100391.47
2023-05-05T23:58:27.662Z,100390.91
